createdAt,value
2022-09-22T00:01:29.174Z,11.63
2022-09-22T00:03:57.796Z,17.63
2022-09-22T00:06:27.114Z,13.50
2022-09-22T00:08:56.469Z,16.70
2022-09-22T00:11:28.515Z,12.70
2022-09-22T00:13:59.033Z,16.00
2022-09-22T00:16:31.353Z,16.20
2022-09-22T00:18:59.290Z,13.50
2022-09-22T00:21:27.913Z,13.33
2022-09-22T00:23:56.028Z,16.43
2022-09-22T00:26:24.902Z,15.37
2022-09-22T00:28:53.153Z,18.20
2022-09-22T00:31:22.204Z,19.63
2022-09-22T00:33:51.781Z,15.57
2022-09-22T00:36:20.236Z,15.50
2022-09-22T00:38:50.536Z,13.20
2022-09-22T00:41:19.241Z,17.07
2022-09-22T00:43:48.688Z,16.23
2022-09-22T00:46:17.937Z,17.30
2022-09-22T00:48:48.142Z,15.20
2022-09-22T00:51:17.978Z,19.73
2022-09-22T00:53:46.037Z,16.77
2022-09-22T00:56:15.101Z,22.60
2022-09-22T00:58:45.711Z,16.73
2022-09-22T01:01:15.280Z,15.73
2022-09-22T01:03:43.970Z,14.60
2022-09-22T01:06:15.988Z,17.90
2022-09-22T01:08:45.320Z,18.90
2022-09-22T01:11:13.413Z,17.60
2022-09-22T01:13:43.446Z,17.27
2022-09-22T01:16:28.397Z,24.13
2022-09-22T01:19:03.859Z,18.73
2022-09-22T01:21:40.097Z,17.30
2022-09-22T01:24:49.675Z,17.93
2022-09-22T01:27:46.744Z,21.07
2022-09-22T01:30:26.590Z,21.20
2022-09-22T01:33:09.612Z,21.43
2022-09-22T01:35:41.506Z,22.13
2022-09-22T01:38:11.845Z,22.03
2022-09-22T01:40:42.777Z,20.00
2022-09-22T01:43:15.042Z,18.03
2022-09-22T01:45:44.963Z,21.33
2022-09-22T01:48:14.593Z,18.07
2022-09-22T01:50:44.594Z,18.43
2022-09-22T01:53:14.187Z,21.23
2022-09-22T01:55:43.269Z,17.50
2022-09-22T01:58:13.166Z,18.70
2022-09-22T02:00:42.132Z,19.93
2022-09-22T02:03:12.733Z,20.07
2022-09-22T02:05:42.979Z,21.73
2022-09-22T02:08:12.111Z,19.60
2022-09-22T02:10:42.845Z,19.07
2022-09-22T02:13:10.747Z,18.23
2022-09-22T02:15:56.183Z,21.63
2022-09-22T02:18:27.154Z,20.30
2022-09-22T02:20:55.049Z,22.37
2022-09-22T02:23:22.988Z,20.10
2022-09-22T02:25:50.912Z,17.40
2022-09-22T02:28:19.914Z,22.30
2022-09-22T02:31:10.426Z,20.63
2022-09-22T02:33:39.751Z,19.67
2022-09-22T02:36:17.076Z,19.23
2022-09-22T02:38:48.362Z,17.00
2022-09-22T02:41:18.746Z,21.73
2022-09-22T02:43:49.089Z,19.50
2022-09-22T02:46:20.585Z,19.27
2022-09-22T02:48:51.214Z,18.27
2022-09-22T02:51:19.485Z,21.03
2022-09-22T02:53:47.405Z,19.90
2022-09-22T02:56:15.413Z,19.03
2022-09-22T02:58:43.298Z,16.37
2022-09-22T03:01:11.241Z,17.23
2022-09-22T03:03:39.153Z,18.97
2022-09-22T03:06:08.628Z,18.17
2022-09-22T03:08:36.559Z,17.77
2022-09-22T03:11:04.533Z,16.83
2022-09-22T03:13:32.439Z,16.37
2022-09-22T03:16:00.450Z,18.43
2022-09-22T03:18:28.361Z,17.40
2022-09-22T03:20:56.366Z,18.33
2022-09-22T03:23:25.642Z,19.13
2022-09-22T03:25:53.567Z,18.23
2022-09-22T03:28:21.485Z,16.73
2022-09-22T03:30:49.466Z,19.97
2022-09-22T03:33:17.399Z,18.10
2022-09-22T03:35:45.293Z,16.93
2022-09-22T03:38:13.213Z,19.83
2022-09-22T03:40:42.671Z,18.87
2022-09-22T03:43:15.919Z,18.87
2022-09-22T03:45:44.655Z,17.33
2022-09-22T03:48:12.607Z,17.97
2022-09-22T03:50:40.529Z,20.33
2022-09-22T03:53:08.448Z,20.33
2022-09-22T03:55:37.274Z,16.37
2022-09-22T03:58:06.547Z,19.27
2022-09-22T04:00:34.437Z,18.07
2022-09-22T04:03:02.367Z,17.80
2022-09-22T04:05:30.283Z,20.73
2022-09-22T04:07:58.206Z,21.73
2022-09-22T04:10:26.421Z,20.07
2022-09-22T04:12:54.285Z,21.07
2022-09-22T04:15:23.569Z,21.00
2022-09-22T04:17:51.460Z,19.43
2022-09-22T04:20:19.592Z,17.90
2022-09-22T04:22:47.544Z,22.40
2022-09-22T04:25:15.494Z,18.83
2022-09-22T04:27:43.413Z,23.10
2022-09-22T04:30:12.666Z,20.33
2022-09-22T04:32:41.982Z,22.10
2022-09-22T04:35:10.184Z,19.40
2022-09-22T04:37:38.082Z,22.97
2022-09-22T04:40:06.902Z,21.57
2022-09-22T04:42:34.944Z,19.23
2022-09-22T04:45:03.113Z,19.73
2022-09-22T04:47:31.093Z,19.47
2022-09-22T04:50:00.420Z,18.77
2022-09-22T04:52:28.335Z,20.30
2022-09-22T04:54:56.386Z,21.30
2022-09-22T04:57:24.269Z,21.37
2022-09-22T04:59:52.168Z,21.33
2022-09-22T05:02:20.263Z,20.27
2022-09-22T05:04:48.166Z,25.13
2022-09-22T05:07:17.461Z,19.60
2022-09-22T05:09:46.145Z,22.93
2022-09-22T05:12:14.088Z,23.43
2022-09-22T05:14:42.363Z,21.60
2022-09-22T05:17:10.275Z,22.67
2022-09-22T05:19:38.645Z,20.93
2022-09-22T05:22:06.616Z,21.87
2022-09-22T05:24:36.007Z,21.77
2022-09-22T05:27:04.776Z,23.73
2022-09-22T05:29:32.876Z,25.17
2022-09-22T05:32:01.014Z,23.90
2022-09-22T05:34:28.902Z,23.47
2022-09-22T05:36:56.874Z,25.57
2022-09-22T05:39:24.815Z,22.97
2022-09-22T05:41:54.352Z,27.63
2022-09-22T05:44:23.621Z,25.70
2022-09-22T05:46:51.639Z,28.63
2022-09-22T05:49:19.506Z,27.83
2022-09-22T05:51:47.594Z,26.93
2022-09-22T05:54:18.035Z,25.60
2022-09-22T05:56:47.975Z,29.03
2022-09-22T05:59:17.317Z,23.70
2022-09-22T06:01:45.392Z,28.83
2022-09-22T06:04:13.358Z,28.03
2022-09-22T06:06:41.943Z,32.03
2022-09-22T06:09:09.895Z,29.90
2022-09-22T06:11:37.902Z,33.20
2022-09-22T06:14:05.800Z,31.73
2022-09-22T06:16:35.186Z,26.77
2022-09-22T06:19:03.656Z,30.13
2022-09-22T06:21:31.555Z,29.93
2022-09-22T06:23:59.525Z,26.47
2022-09-22T06:26:27.900Z,31.47
2022-09-22T06:28:56.867Z,24.40
2022-09-22T06:31:24.964Z,33.77
2022-09-22T06:33:54.749Z,32.83
2022-09-22T06:36:30.453Z,25.50
2022-09-22T06:38:59.432Z,28.70
2022-09-22T06:41:27.607Z,29.33
2022-09-22T06:43:56.193Z,29.00
2022-09-22T06:46:26.186Z,29.10
2022-09-22T06:48:57.298Z,31.67
2022-09-22T06:51:26.746Z,33.90
2022-09-22T06:53:55.105Z,27.23
2022-09-22T06:56:23.741Z,27.53
2022-09-22T06:59:08.774Z,32.87
2022-09-22T07:01:38.084Z,30.47
2022-09-22T07:04:07.544Z,25.77
2022-09-22T07:06:35.864Z,27.63
2022-09-22T07:09:04.224Z,23.43
2022-09-22T07:11:34.266Z,25.00
2022-09-22T07:14:06.107Z,25.27
2022-09-22T07:16:34.036Z,29.10
2022-09-22T07:19:02.372Z,29.70
2022-09-22T07:21:35.259Z,22.67
2022-09-22T07:24:03.600Z,27.67
2022-09-22T07:26:32.647Z,28.20
2022-09-22T07:29:01.416Z,26.10
2022-09-22T07:31:32.130Z,25.07
2022-09-22T07:34:00.716Z,26.27
2022-09-22T07:36:29.631Z,24.20
2022-09-22T07:38:59.804Z,28.57
2022-09-22T07:41:28.636Z,24.40
2022-09-22T07:43:57.268Z,24.90
2022-09-22T07:46:25.362Z,22.67
2022-09-22T07:48:53.254Z,25.63
2022-09-22T07:51:22.267Z,24.53
2022-09-22T07:53:51.983Z,23.97
2022-09-22T07:56:23.870Z,23.03
2022-09-22T07:58:53.437Z,27.60
2022-09-22T08:01:22.216Z,23.87
2022-09-22T08:03:50.884Z,23.07
2022-09-22T08:06:23.741Z,21.80
2022-09-22T08:08:53.757Z,25.17
2022-09-22T08:11:23.910Z,19.20
2022-09-22T08:13:53.418Z,29.37
2022-09-22T08:16:22.696Z,27.07
2022-09-22T08:18:56.660Z,25.57
2022-09-22T08:21:24.735Z,22.23
2022-09-22T08:23:53.205Z,22.03
2022-09-22T08:26:22.910Z,20.27
2022-09-22T08:28:52.489Z,20.17
2022-09-22T08:31:21.351Z,19.60
2022-09-22T08:33:49.707Z,20.20
2022-09-22T08:36:17.824Z,26.57
2022-09-22T08:38:49.636Z,19.57
2022-09-22T08:41:21.180Z,24.37
2022-09-22T08:43:55.458Z,19.87
2022-09-22T08:46:28.588Z,18.03
2022-09-22T08:49:15.172Z,23.90
2022-09-22T08:51:55.063Z,19.80
2022-09-22T08:54:26.024Z,18.93
2022-09-22T08:57:21.540Z,16.80
2022-09-22T08:59:53.627Z,18.43
2022-09-22T09:02:36.508Z,16.47
2022-09-22T09:05:55.871Z,18.57
2022-09-22T09:08:33.838Z,19.53
2022-09-22T09:11:08.523Z,17.30
2022-09-22T09:13:43.771Z,19.27
2022-09-22T09:16:37.796Z,19.00
2022-09-22T09:19:07.845Z,15.77
2022-09-22T09:21:36.477Z,15.83
2022-09-22T09:26:56.617Z,13.07
2022-09-22T09:29:25.577Z,12.90
2022-09-22T09:31:55.182Z,14.10
2022-09-22T09:34:24.332Z,12.10
2022-09-22T09:36:55.447Z,10.40
2022-09-22T09:39:27.514Z,10.77
2022-09-22T09:41:55.458Z,12.30
2022-09-22T09:44:25.895Z,8.57
2022-09-22T09:46:58.058Z,12.13
2022-09-22T09:49:25.998Z,14.33
2022-09-22T09:51:54.928Z,10.57
2022-09-22T09:54:23.232Z,10.40
2022-09-22T09:57:08.316Z,16.73
2022-09-22T09:59:53.836Z,10.33
2022-09-22T10:02:25.219Z,9.97
2022-09-22T10:04:53.790Z,14.90
2022-09-22T10:07:22.895Z,9.43
2022-09-22T10:09:51.492Z,9.27
2022-09-22T10:12:24.761Z,8.43
2022-09-22T10:14:53.322Z,11.90
2022-09-22T10:17:24.557Z,8.90
2022-09-22T10:19:52.516Z,10.93
2022-09-22T10:22:25.355Z,6.43
2022-09-22T10:24:58.304Z,10.57
2022-09-22T10:27:27.106Z,7.43
2022-09-22T10:30:15.315Z,7.03
2022-09-22T10:32:45.173Z,8.77
2022-09-22T10:35:27.140Z,9.80
2022-09-22T10:37:56.556Z,9.27
2022-09-22T10:40:24.871Z,5.93
2022-09-22T10:42:52.937Z,7.77
2022-09-22T10:45:20.955Z,7.13
2022-09-22T10:47:55.601Z,6.00
2022-09-22T10:50:45.879Z,5.27
2022-09-22T10:53:26.473Z,4.30
2022-09-22T10:55:55.568Z,3.23
2022-09-22T10:58:37.770Z,5.57
2022-09-22T11:01:11.823Z,4.90
2022-09-22T11:04:03.247Z,6.67
2022-09-22T11:06:55.887Z,2.83
2022-09-22T11:09:44.906Z,6.07
2022-09-22T11:12:19.021Z,3.30
2022-09-22T11:15:01.865Z,2.10
2022-09-22T11:17:53.398Z,3.75
2022-09-22T11:20:34.266Z,1.92
2022-09-22T11:23:35.648Z,3.63
2022-09-22T11:26:24.873Z,3.03
2022-09-22T11:28:57.408Z,4.55
2022-09-22T11:31:37.737Z,1.85
2022-09-22T11:34:13.173Z,1.98
2022-09-22T11:36:51.392Z,2.53
2022-09-22T11:39:21.466Z,3.10
2022-09-22T11:41:56.012Z,2.08
2022-09-22T11:44:31.327Z,2.22
2022-09-22T11:47:09.626Z,3.13
2022-09-22T11:49:47.114Z,2.00
2022-09-22T11:52:22.466Z,4.85
2022-09-22T11:55:02.363Z,2.33
2022-09-22T11:57:32.088Z,2.13
2022-09-22T12:00:01.212Z,5.47
2022-09-22T12:02:32.341Z,2.50
2022-09-22T12:05:03.592Z,3.40
2022-09-22T12:07:35.175Z,1.92
2022-09-22T12:10:04.724Z,6.05
2022-09-22T12:12:33.085Z,1.98
2022-09-22T12:15:04.947Z,5.72
2022-09-22T12:17:37.859Z,7.82
2022-09-22T12:20:13.170Z,3.65
2022-09-22T12:23:08.222Z,5.95
2022-09-22T12:25:48.959Z,2.70
2022-09-22T12:28:18.354Z,10.68
2022-09-22T12:31:13.178Z,3.45
2022-09-22T12:33:47.595Z,7.55
2022-09-22T12:36:15.840Z,5.03
2022-09-22T12:51:56.370Z,3.42
2022-09-22T12:54:51.411Z,4.32
2022-09-22T12:57:32.106Z,8.85
2022-09-22T13:00:32.123Z,5.05
2022-09-22T13:03:01.508Z,5.10
2022-09-22T13:05:33.929Z,5.68
2022-09-22T13:08:02.252Z,4.93
2022-09-22T13:10:56.672Z,2.45
2022-09-22T13:13:44.470Z,3.65
2022-09-22T13:16:37.164Z,6.05
2022-09-22T13:19:08.442Z,3.20
2022-09-22T13:21:36.985Z,4.47
2022-09-22T13:24:06.539Z,4.97
2022-09-22T13:26:36.633Z,6.70
2022-09-22T13:29:11.812Z,3.03
2022-09-22T13:31:41.062Z,8.55
2022-09-22T13:34:29.256Z,3.67
2022-09-22T13:37:00.499Z,8.02
2022-09-22T13:39:30.832Z,4.55
2022-09-22T13:42:01.012Z,5.05
2022-09-22T13:44:29.811Z,6.00
2022-09-22T13:46:58.290Z,2.40
2022-09-22T13:49:32.080Z,2.50
2022-09-22T13:52:02.590Z,10.23
2022-09-22T13:54:35.562Z,5.32
2022-09-22T13:57:05.939Z,8.13
2022-09-22T13:59:38.671Z,2.70
2022-09-22T14:02:08.363Z,4.63
2022-09-22T14:04:36.476Z,4.10
2022-09-22T14:07:07.131Z,3.33
2022-09-22T14:09:35.625Z,5.00
2022-09-22T14:12:05.706Z,6.05
2022-09-22T14:14:33.704Z,5.13
2022-09-22T14:17:02.854Z,5.63
2022-09-22T14:19:34.102Z,14.33
2022-09-22T14:22:03.562Z,3.70
2022-09-22T14:24:31.731Z,10.02
2022-09-22T14:27:04.026Z,10.43
2022-09-22T14:29:34.227Z,6.35
2022-09-22T14:32:11.827Z,12.13
2022-09-22T14:34:49.792Z,4.30
2022-09-22T14:37:22.748Z,2.78
2022-09-22T14:39:50.837Z,2.33
2022-09-22T14:42:20.109Z,2.63
2022-09-22T14:44:50.808Z,9.57
2022-09-22T14:47:25.817Z,3.58
2022-09-22T14:50:37.304Z,9.63
2022-09-22T14:53:06.757Z,8.13
2022-09-22T14:55:35.930Z,4.40
2022-09-22T14:58:06.900Z,5.95
2022-09-22T15:00:54.062Z,3.55
2022-09-22T15:03:26.456Z,8.98
2022-09-22T15:05:54.470Z,5.30
2022-09-22T15:08:23.817Z,3.22
2022-09-22T15:10:56.140Z,2.92
2022-09-22T15:13:32.135Z,12.05
2022-09-22T15:16:01.563Z,2.10
2022-09-22T15:18:31.085Z,4.10
2022-09-22T15:22:24.632Z,10.60
2022-09-22T15:25:42.674Z,3.78
2022-09-22T15:31:06.280Z,6.68
2022-09-22T15:41:51.588Z,11.57
2022-09-22T15:49:16.545Z,3.57
2022-09-22T15:56:11.110Z,8.33
2022-09-22T16:56:48.471Z,13.90
2022-09-22T17:00:03.403Z,7.93
2022-09-22T17:21:08.098Z,6.77
2022-09-22T17:23:36.555Z,8.77
2022-09-22T17:26:04.694Z,7.70
2022-09-22T17:28:32.676Z,8.43
2022-09-22T17:31:00.768Z,9.33
2022-09-22T17:33:29.075Z,8.70
2022-09-22T17:36:00.160Z,8.67
2022-09-22T17:38:34.821Z,14.10
2022-09-22T17:41:08.415Z,8.70
2022-09-22T17:43:36.468Z,6.20
2022-09-22T17:46:04.382Z,11.93
2022-09-22T17:48:49.795Z,9.17
2022-09-22T17:51:45.888Z,8.60
2022-09-22T17:54:36.269Z,9.73
2022-09-22T17:57:05.360Z,4.17
2022-09-22T17:59:33.647Z,3.03
2022-09-22T18:02:01.854Z,3.57
2022-09-22T18:04:29.880Z,5.63
2022-09-22T18:06:59.166Z,7.23
2022-09-22T18:09:31.154Z,8.73
2022-09-22T18:11:59.167Z,7.57
2022-09-22T18:14:27.053Z,6.47
2022-09-22T18:16:54.989Z,8.70
2022-09-22T18:19:22.905Z,10.20
2022-09-22T18:21:50.801Z,10.43
2022-09-22T18:24:19.732Z,8.17
2022-09-22T18:26:49.058Z,10.67
2022-09-22T18:29:17.203Z,15.40
2022-09-22T18:31:45.504Z,5.57
2022-09-22T18:34:14.268Z,4.10
2022-09-22T18:36:42.285Z,3.77
2022-09-22T18:39:10.215Z,7.43
2022-09-22T18:41:38.236Z,8.70
2022-09-22T18:44:09.207Z,8.40
2022-09-22T18:46:37.260Z,10.40
2022-09-22T18:49:06.060Z,6.40
2022-09-22T18:51:34.230Z,9.13
2022-09-22T18:54:08.156Z,6.37
2022-09-22T18:56:36.669Z,2.63
2022-09-22T18:59:04.819Z,5.07
2022-09-22T19:01:35.463Z,5.60
2022-09-22T19:04:24.119Z,2.93
2022-09-22T19:07:10.215Z,2.53
2022-09-22T19:09:41.586Z,2.67
2022-09-22T19:12:11.730Z,2.83
2022-09-22T19:14:41.989Z,2.47
2022-09-22T19:20:24.463Z,3.73
2022-09-22T19:22:54.100Z,3.10
2022-09-22T19:25:22.984Z,2.20
2022-09-22T19:27:52.550Z,6.40
2022-09-22T19:30:27.506Z,3.17
2022-09-22T19:33:00.342Z,3.73
2022-09-22T19:35:28.767Z,5.13
2022-09-22T19:38:03.696Z,2.97
2022-09-22T19:40:37.717Z,8.17
2022-09-22T19:43:06.225Z,5.17
2022-09-22T19:45:35.820Z,3.37
2022-09-22T19:51:44.957Z,3.70
2022-09-22T19:54:22.007Z,3.90
2022-09-22T19:56:51.905Z,3.83
2022-09-22T19:59:20.596Z,4.53
2022-09-22T20:01:49.554Z,3.93
2022-09-22T20:08:01.707Z,4.03
2022-09-22T20:11:26.081Z,4.70
2022-09-22T20:14:20.625Z,2.87
2022-09-22T20:17:31.347Z,3.03
2022-09-22T20:20:29.361Z,3.30
2022-09-22T20:23:41.066Z,3.00
2022-09-22T20:30:22.556Z,3.73
2022-09-22T20:36:37.929Z,4.37
2022-09-22T20:39:06.118Z,4.57
2022-09-22T20:41:34.150Z,3.37
2022-09-22T20:44:03.798Z,3.40
2022-09-22T20:50:36.314Z,4.00
2022-09-22T20:53:06.220Z,3.90
2022-09-22T20:55:34.883Z,5.50
2022-09-22T20:58:04.897Z,3.83
2022-09-22T21:00:33.156Z,7.40
2022-09-22T21:03:32.527Z,4.43
2022-09-22T21:09:31.092Z,7.13
2022-09-22T21:12:10.079Z,4.97
2022-09-22T21:14:54.854Z,7.87
2022-09-22T21:17:58.769Z,5.17
2022-09-22T21:20:48.736Z,5.67
2022-09-22T21:23:29.207Z,5.10
2022-09-22T21:25:59.980Z,5.03
2022-09-22T21:28:31.982Z,8.43
2022-09-22T21:31:00.838Z,4.90
2022-09-22T21:33:29.849Z,4.90
2022-09-22T21:36:04.834Z,5.43
2022-09-22T21:38:36.702Z,5.63
2022-09-22T21:41:07.283Z,4.23
2022-09-22T21:43:36.242Z,4.30
2022-09-22T21:46:19.740Z,4.70
2022-09-22T21:48:48.110Z,6.20
2022-09-22T21:51:37.272Z,4.63
2022-09-22T21:54:06.138Z,6.47
2022-09-22T21:56:38.984Z,4.83
2022-09-22T21:59:08.088Z,5.43
2022-09-22T22:02:00.313Z,5.23
2022-09-22T22:04:34.268Z,5.27
2022-09-22T22:07:02.334Z,7.17
2022-09-22T22:09:30.743Z,5.47
2022-09-22T22:12:00.200Z,5.97
2022-09-22T22:14:35.023Z,5.77
2022-09-22T22:17:03.390Z,7.60
2022-09-22T22:19:40.985Z,6.30
2022-09-22T22:22:09.133Z,5.80
2022-09-22T22:24:47.704Z,8.77
2022-09-22T22:27:18.241Z,6.57
2022-09-22T22:29:48.125Z,5.80
2022-09-22T22:32:20.191Z,5.63
2022-09-22T22:35:33.587Z,6.77
2022-09-22T22:38:01.871Z,6.03
2022-09-22T22:40:30.045Z,6.30
2022-09-22T22:42:59.735Z,6.40
2022-09-22T22:45:28.275Z,7.80
2022-09-22T22:47:56.750Z,5.90
2022-09-22T22:50:25.891Z,5.70
2022-09-22T22:52:57.610Z,8.40
2022-09-22T22:55:34.391Z,5.60
2022-09-22T23:01:42.662Z,5.30
2022-09-22T23:04:16.888Z,5.53
2022-09-22T23:07:18.299Z,5.53
2022-09-22T23:10:06.501Z,9.17
2022-09-22T23:12:40.424Z,9.30
2022-09-22T23:15:25.218Z,5.10
2022-09-22T23:17:54.423Z,6.17
2022-09-22T23:20:22.334Z,6.33
2022-09-22T23:22:50.361Z,7.00
2022-09-22T23:25:18.624Z,6.73
2022-09-22T23:27:48.606Z,8.23
2022-09-22T23:30:18.521Z,7.73
2022-09-22T23:32:47.213Z,5.57
2022-09-22T23:35:15.881Z,8.23
2022-09-22T23:37:44.177Z,7.20
2022-09-22T23:40:12.629Z,7.07
2022-09-22T23:42:42.001Z,6.67
2022-09-22T23:45:11.259Z,9.77
2022-09-22T23:47:40.703Z,4.30
2022-09-22T23:50:12.281Z,9.43
2022-09-22T23:52:40.385Z,7.73
2022-09-22T23:55:09.277Z,4.23
2022-09-22T23:57:37.503Z,11.90
